sensor_id;sensor_type;location;lat;lon;timestamp;P1;durP1;ratioP1;P2;durP2;ratioP2
77146;SDS011;66121;52.584;9.694;2023-03-25T00:01:20;3.08;;;1.60;;
77146;SDS011;66121;52.584;9.694;2023-03-25T00:03:50;4.05;;;1.40;;
77146;SDS011;66121;52.584;9.694;2023-03-25T00:06:17;6.18;;;1.73;;
77146;SDS011;66121;52.584;9.694;2023-03-25T00:08:43;4.40;;;1.60;;
77146;SDS011;66121;52.584;9.694;2023-03-25T00:11:09;8.02;;;1.85;;
77146;SDS011;66121;52.584;9.694;2023-03-25T00:13:35;6.85;;;1.90;;
77146;SDS011;66121;52.584;9.694;2023-03-25T00:16:01;5.90;;;1.75;;
77146;SDS011;66121;52.584;9.694;2023-03-25T00:18:29;2.97;;;1.63;;
77146;SDS011;66121;52.584;9.694;2023-03-25T00:20:59;4.18;;;1.50;;
77146;SDS011;66121;52.584;9.694;2023-03-25T00:23:28;5.32;;;1.70;;
77146;SDS011;66121;52.584;9.694;2023-03-25T00:25:55;6.30;;;1.65;;
77146;SDS011;66121;52.584;9.694;2023-03-25T00:28:24;3.72;;;1.40;;
77146;SDS011;66121;52.584;9.694;2023-03-25T00:30:52;3.90;;;1.50;;
77146;SDS011;66121;52.584;9.694;2023-03-25T00:33:17;4.38;;;1.40;;
77146;SDS011;66121;52.584;9.694;2023-03-25T00:35:43;4.63;;;1.98;;
77146;SDS011;66121;52.584;9.694;2023-03-25T00:38:08;5.78;;;1.80;;
77146;SDS011;66121;52.584;9.694;2023-03-25T00:40:34;4.07;;;1.40;;
77146;SDS011;66121;52.584;9.694;2023-03-25T00:43:01;3.73;;;1.70;;
77146;SDS011;66121;52.584;9.694;2023-03-25T00:45:27;2.25;;;1.40;;
77146;SDS011;66121;52.584;9.694;2023-03-25T00:47:53;5.40;;;1.80;;
77146;SDS011;66121;52.584;9.694;2023-03-25T00:50:19;4.18;;;1.50;;
77146;SDS011;66121;52.584;9.694;2023-03-25T00:52:48;3.28;;;1.60;;
77146;SDS011;66121;52.584;9.694;2023-03-25T00:55:14;3.13;;;1.73;;
77146;SDS011;66121;52.584;9.694;2023-03-25T00:57:39;3.30;;;1.50;;
77146;SDS011;66121;52.584;9.694;2023-03-25T01:00:06;3.83;;;1.60;;
77146;SDS011;66121;52.584;9.694;2023-03-25T01:02:33;3.78;;;1.40;;
77146;SDS011;66121;52.584;9.694;2023-03-25T01:04:59;5.13;;;1.95;;
77146;SDS011;66121;52.584;9.694;2023-03-25T01:07:25;4.30;;;1.58;;
77146;SDS011;66121;52.584;9.694;2023-03-25T01:09:53;5.07;;;1.38;;
77146;SDS011;66121;52.584;9.694;2023-03-25T01:12:19;5.20;;;1.80;;
77146;SDS011;66121;52.584;9.694;2023-03-25T01:14:45;5.05;;;1.73;;
77146;SDS011;66121;52.584;9.694;2023-03-25T01:17:10;5.87;;;1.80;;
77146;SDS011;66121;52.584;9.694;2023-03-25T01:19:35;3.40;;;1.50;;
77146;SDS011;66121;52.584;9.694;2023-03-25T01:22:01;3.10;;;1.60;;
77146;SDS011;66121;52.584;9.694;2023-03-25T01:24:26;6.78;;;2.08;;
77146;SDS011;66121;52.584;9.694;2023-03-25T01:26:51;5.53;;;2.20;;
77146;SDS011;66121;52.584;9.694;2023-03-25T01:29:17;6.67;;;1.83;;
77146;SDS011;66121;52.584;9.694;2023-03-25T01:31:44;10.65;;;2.20;;
77146;SDS011;66121;52.584;9.694;2023-03-25T01:34:10;5.68;;;1.90;;
77146;SDS011;66121;52.584;9.694;2023-03-25T01:36:36;6.22;;;1.90;;
77146;SDS011;66121;52.584;9.694;2023-03-25T01:39:03;6.47;;;2.30;;
77146;SDS011;66121;52.584;9.694;2023-03-25T01:41:30;4.55;;;2.10;;
77146;SDS011;66121;52.584;9.694;2023-03-25T01:44:00;5.60;;;2.40;;
77146;SDS011;66121;52.584;9.694;2023-03-25T01:46:39;4.78;;;2.20;;
77146;SDS011;66121;52.584;9.694;2023-03-25T01:49:09;8.65;;;2.55;;
77146;SDS011;66121;52.584;9.694;2023-03-25T01:51:39;4.18;;;2.58;;
77146;SDS011;66121;52.584;9.694;2023-03-25T01:54:06;6.10;;;2.40;;
77146;SDS011;66121;52.584;9.694;2023-03-25T01:56:34;5.00;;;2.60;;
77146;SDS011;66121;52.584;9.694;2023-03-25T01:59:03;7.40;;;2.75;;
77146;SDS011;66121;52.584;9.694;2023-03-25T02:01:30;6.22;;;2.97;;
77146;SDS011;66121;52.584;9.694;2023-03-25T02:03:56;5.50;;;3.05;;
77146;SDS011;66121;52.584;9.694;2023-03-25T02:06:43;8.73;;;3.15;;
77146;SDS011;66121;52.584;9.694;2023-03-25T02:09:17;7.30;;;3.47;;
77146;SDS011;66121;52.584;9.694;2023-03-25T02:11:44;8.52;;;3.33;;
77146;SDS011;66121;52.584;9.694;2023-03-25T02:14:14;6.07;;;3.40;;
77146;SDS011;66121;52.584;9.694;2023-03-25T02:28:49;7.88;;;3.22;;
77146;SDS011;66121;52.584;9.694;2023-03-25T02:39:48;9.25;;;3.95;;
77146;SDS011;66121;52.584;9.694;2023-03-25T02:42:20;6.22;;;4.00;;
77146;SDS011;66121;52.584;9.694;2023-03-25T02:47:35;7.95;;;4.30;;
77146;SDS011;66121;52.584;9.694;2023-03-25T02:50:06;8.93;;;4.53;;
77146;SDS011;66121;52.584;9.694;2023-03-25T02:52:36;7.80;;;4.35;;
77146;SDS011;66121;52.584;9.694;2023-03-25T02:55:07;9.45;;;5.10;;
77146;SDS011;66121;52.584;9.694;2023-03-25T02:57:37;8.05;;;4.80;;
77146;SDS011;66121;52.584;9.694;2023-03-25T03:00:06;8.93;;;5.82;;
77146;SDS011;66121;52.584;9.694;2023-03-25T03:02:39;11.35;;;5.00;;
77146;SDS011;66121;52.584;9.694;2023-03-25T03:05:22;8.65;;;5.40;;
77146;SDS011;66121;52.584;9.694;2023-03-25T03:07:52;9.32;;;5.97;;
77146;SDS011;66121;52.584;9.694;2023-03-25T03:10:36;7.25;;;4.90;;
77146;SDS011;66121;52.584;9.694;2023-03-25T03:13:20;10.38;;;5.32;;
77146;SDS011;66121;52.584;9.694;2023-03-25T03:18:43;8.60;;;5.32;;
77146;SDS011;66121;52.584;9.694;2023-03-25T03:21:30;8.50;;;4.90;;
77146;SDS011;66121;52.584;9.694;2023-03-25T03:24:09;8.93;;;4.75;;
77146;SDS011;66121;52.584;9.694;2023-03-25T03:27:27;14.25;;;6.18;;
77146;SDS011;66121;52.584;9.694;2023-03-25T03:29:53;11.27;;;4.47;;
77146;SDS011;66121;52.584;9.694;2023-03-25T03:32:32;7.65;;;4.47;;
77146;SDS011;66121;52.584;9.694;2023-03-25T03:35:09;6.30;;;3.95;;
77146;SDS011;66121;52.584;9.694;2023-03-25T03:37:42;8.45;;;4.28;;
77146;SDS011;66121;52.584;9.694;2023-03-25T03:40:13;9.25;;;4.07;;
77146;SDS011;66121;52.584;9.694;2023-03-25T03:42:44;6.38;;;3.83;;
77146;SDS011;66121;52.584;9.694;2023-03-25T03:45:16;8.90;;;4.35;;
77146;SDS011;66121;52.584;9.694;2023-03-25T03:47:47;6.20;;;4.22;;
77146;SDS011;66121;52.584;9.694;2023-03-25T03:50:21;7.80;;;4.50;;
77146;SDS011;66121;52.584;9.694;2023-03-25T03:52:58;7.40;;;4.25;;
77146;SDS011;66121;52.584;9.694;2023-03-25T03:56:12;6.80;;;4.38;;
77146;SDS011;66121;52.584;9.694;2023-03-25T03:58:25;7.03;;;4.50;;
77146;SDS011;66121;52.584;9.694;2023-03-25T04:00:57;7.15;;;3.95;;
77146;SDS011;66121;52.584;9.694;2023-03-25T04:03:30;6.82;;;4.18;;
77146;SDS011;66121;52.584;9.694;2023-03-25T04:06:23;9.93;;;4.18;;
77146;SDS011;66121;52.584;9.694;2023-03-25T04:09:00;8.93;;;4.38;;
77146;SDS011;66121;52.584;9.694;2023-03-25T04:11:33;6.63;;;4.03;;
77146;SDS011;66121;52.584;9.694;2023-03-25T04:14:02;6.85;;;4.30;;
77146;SDS011;66121;52.584;9.694;2023-03-25T04:16:30;6.80;;;3.97;;
77146;SDS011;66121;52.584;9.694;2023-03-25T04:18:56;5.80;;;3.85;;
77146;SDS011;66121;52.584;9.694;2023-03-25T04:21:22;7.90;;;4.45;;
77146;SDS011;66121;52.584;9.694;2023-03-25T04:23:49;7.95;;;4.13;;
77146;SDS011;66121;52.584;9.694;2023-03-25T04:26:15;6.43;;;3.90;;
77146;SDS011;66121;52.584;9.694;2023-03-25T04:28:41;8.35;;;3.97;;
77146;SDS011;66121;52.584;9.694;2023-03-25T04:31:10;7.30;;;3.97;;
77146;SDS011;66121;52.584;9.694;2023-03-25T04:33:41;8.10;;;3.58;;
77146;SDS011;66121;52.584;9.694;2023-03-25T04:36:10;7.28;;;3.88;;
77146;SDS011;66121;52.584;9.694;2023-03-25T04:38:37;11.40;;;3.97;;
77146;SDS011;66121;52.584;9.694;2023-03-25T04:41:02;7.10;;;4.30;;
77146;SDS011;66121;52.584;9.694;2023-03-25T04:43:30;9.05;;;3.50;;
77146;SDS011;66121;52.584;9.694;2023-03-25T04:45:56;11.65;;;4.32;;
77146;SDS011;66121;52.584;9.694;2023-03-25T04:48:25;7.63;;;3.60;;
77146;SDS011;66121;52.584;9.694;2023-03-25T04:50:56;7.18;;;3.40;;
77146;SDS011;66121;52.584;9.694;2023-03-25T04:53:23;10.60;;;3.75;;
77146;SDS011;66121;52.584;9.694;2023-03-25T04:55:49;5.68;;;2.70;;
77146;SDS011;66121;52.584;9.694;2023-03-25T04:58:15;5.13;;;3.50;;
77146;SDS011;66121;52.584;9.694;2023-03-25T05:00:44;6.85;;;3.17;;
77146;SDS011;66121;52.584;9.694;2023-03-25T05:03:13;6.47;;;3.42;;
77146;SDS011;66121;52.584;9.694;2023-03-25T05:05:39;9.00;;;3.05;;
77146;SDS011;66121;52.584;9.694;2023-03-25T05:08:05;6.13;;;2.70;;
77146;SDS011;66121;52.584;9.694;2023-03-25T05:10:31;8.90;;;3.25;;
77146;SDS011;66121;52.584;9.694;2023-03-25T05:12:58;10.85;;;2.83;;
77146;SDS011;66121;52.584;9.694;2023-03-25T05:15:25;9.10;;;3.05;;
77146;SDS011;66121;52.584;9.694;2023-03-25T05:17:52;7.43;;;3.08;;
77146;SDS011;66121;52.584;9.694;2023-03-25T05:20:17;7.28;;;3.25;;
77146;SDS011;66121;52.584;9.694;2023-03-25T05:22:43;6.50;;;3.13;;
77146;SDS011;66121;52.584;9.694;2023-03-25T05:25:09;5.93;;;3.20;;
77146;SDS011;66121;52.584;9.694;2023-03-25T05:27:35;5.53;;;3.05;;
77146;SDS011;66121;52.584;9.694;2023-03-25T05:30:01;7.43;;;2.80;;
77146;SDS011;66121;52.584;9.694;2023-03-25T05:32:27;6.65;;;3.22;;
77146;SDS011;66121;52.584;9.694;2023-03-25T05:34:57;4.72;;;2.80;;
77146;SDS011;66121;52.584;9.694;2023-03-25T05:37:26;4.75;;;3.13;;
77146;SDS011;66121;52.584;9.694;2023-03-25T05:39:52;8.40;;;3.20;;
77146;SDS011;66121;52.584;9.694;2023-03-25T05:42:17;7.35;;;3.40;;
77146;SDS011;66121;52.584;9.694;2023-03-25T05:44:46;7.80;;;3.20;;
77146;SDS011;66121;52.584;9.694;2023-03-25T05:47:15;8.38;;;3.85;;
77146;SDS011;66121;52.584;9.694;2023-03-25T05:49:41;8.70;;;3.10;;
77146;SDS011;66121;52.584;9.694;2023-03-25T05:52:07;9.97;;;3.40;;
77146;SDS011;66121;52.584;9.694;2023-03-25T05:54:33;7.72;;;3.30;;
77146;SDS011;66121;52.584;9.694;2023-03-25T05:57:02;6.15;;;3.28;;
77146;SDS011;66121;52.584;9.694;2023-03-25T05:59:28;5.50;;;2.60;;
77146;SDS011;66121;52.584;9.694;2023-03-25T06:01:53;11.57;;;3.30;;
77146;SDS011;66121;52.584;9.694;2023-03-25T06:04:19;7.33;;;3.30;;
77146;SDS011;66121;52.584;9.694;2023-03-25T06:06:45;4.70;;;3.20;;
77146;SDS011;66121;52.584;9.694;2023-03-25T06:09:11;7.00;;;3.40;;
77146;SDS011;66121;52.584;9.694;2023-03-25T06:11:36;5.78;;;3.40;;
77146;SDS011;66121;52.584;9.694;2023-03-25T06:14:02;4.10;;;3.13;;
77146;SDS011;66121;52.584;9.694;2023-03-25T06:16:28;5.50;;;3.38;;
77146;SDS011;66121;52.584;9.694;2023-03-25T06:18:55;5.72;;;2.95;;
77146;SDS011;66121;52.584;9.694;2023-03-25T06:21:23;8.27;;;3.33;;
77146;SDS011;66121;52.584;9.694;2023-03-25T06:23:50;5.90;;;3.92;;
77146;SDS011;66121;52.584;9.694;2023-03-25T06:26:16;7.28;;;3.40;;
77146;SDS011;66121;52.584;9.694;2023-03-25T06:28:42;7.72;;;3.85;;
77146;SDS011;66121;52.584;9.694;2023-03-25T06:31:15;4.68;;;3.20;;
77146;SDS011;66121;52.584;9.694;2023-03-25T06:33:44;8.05;;;3.45;;
77146;SDS011;66121;52.584;9.694;2023-03-25T06:36:11;8.05;;;3.88;;
77146;SDS011;66121;52.584;9.694;2023-03-25T06:38:39;4.20;;;3.15;;
77146;SDS011;66121;52.584;9.694;2023-03-25T06:41:05;6.93;;;3.95;;
77146;SDS011;66121;52.584;9.694;2023-03-25T06:43:31;5.70;;;3.30;;
77146;SDS011;66121;52.584;9.694;2023-03-25T06:45:56;5.05;;;3.20;;
77146;SDS011;66121;52.584;9.694;2023-03-25T06:48:22;6.60;;;3.63;;
77146;SDS011;66121;52.584;9.694;2023-03-25T06:50:47;5.20;;;3.45;;
77146;SDS011;66121;52.584;9.694;2023-03-25T06:53:13;5.82;;;3.38;;
77146;SDS011;66121;52.584;9.694;2023-03-25T06:55:38;5.77;;;3.43;;
77146;SDS011;66121;52.584;9.694;2023-03-25T06:58:05;7.45;;;3.63;;
77146;SDS011;66121;52.584;9.694;2023-03-25T07:00:30;6.88;;;3.65;;
77146;SDS011;66121;52.584;9.694;2023-03-25T07:02:56;7.00;;;3.80;;
77146;SDS011;66121;52.584;9.694;2023-03-25T07:05:22;7.93;;;4.40;;
77146;SDS011;66121;52.584;9.694;2023-03-25T07:07:47;9.00;;;4.30;;
77146;SDS011;66121;52.584;9.694;2023-03-25T07:10:13;9.13;;;3.30;;
77146;SDS011;66121;52.584;9.694;2023-03-25T07:12:38;10.63;;;4.22;;
77146;SDS011;66121;52.584;9.694;2023-03-25T07:15:04;10.25;;;4.07;;
77146;SDS011;66121;52.584;9.694;2023-03-25T07:17:30;6.38;;;3.70;;
77146;SDS011;66121;52.584;9.694;2023-03-25T07:19:56;9.73;;;3.85;;
77146;SDS011;66121;52.584;9.694;2023-03-25T07:22:21;6.23;;;3.37;;
77146;SDS011;66121;52.584;9.694;2023-03-25T07:24:46;5.88;;;3.80;;
77146;SDS011;66121;52.584;9.694;2023-03-25T07:27:12;7.53;;;4.05;;
77146;SDS011;66121;52.584;9.694;2023-03-25T07:29:38;5.28;;;3.95;;
77146;SDS011;66121;52.584;9.694;2023-03-25T07:32:04;6.88;;;4.00;;
77146;SDS011;66121;52.584;9.694;2023-03-25T07:34:30;6.97;;;3.47;;
77146;SDS011;66121;52.584;9.694;2023-03-25T07:36:55;9.85;;;4.28;;
77146;SDS011;66121;52.584;9.694;2023-03-25T07:39:20;8.10;;;4.20;;
77146;SDS011;66121;52.584;9.694;2023-03-25T07:41:49;6.88;;;3.15;;
77146;SDS011;66121;52.584;9.694;2023-03-25T07:44:17;9.10;;;4.43;;
77146;SDS011;66121;52.584;9.694;2023-03-25T07:46:46;9.85;;;4.75;;
77146;SDS011;66121;52.584;9.694;2023-03-25T07:49:12;8.32;;;4.53;;
77146;SDS011;66121;52.584;9.694;2023-03-25T07:51:38;8.73;;;4.50;;
77146;SDS011;66121;52.584;9.694;2023-03-25T07:54:03;6.30;;;3.67;;
77146;SDS011;66121;52.584;9.694;2023-03-25T07:56:29;7.95;;;4.18;;
77146;SDS011;66121;52.584;9.694;2023-03-25T07:58:54;11.07;;;5.05;;
77146;SDS011;66121;52.584;9.694;2023-03-25T08:01:20;5.85;;;3.72;;
77146;SDS011;66121;52.584;9.694;2023-03-25T08:03:45;6.85;;;4.30;;
77146;SDS011;66121;52.584;9.694;2023-03-25T08:06:11;6.80;;;3.83;;
77146;SDS011;66121;52.584;9.694;2023-03-25T08:08:36;7.03;;;3.87;;
77146;SDS011;66121;52.584;9.694;2023-03-25T08:11:01;7.20;;;3.65;;
77146;SDS011;66121;52.584;9.694;2023-03-25T08:13:27;4.88;;;3.65;;
77146;SDS011;66121;52.584;9.694;2023-03-25T08:15:53;8.13;;;3.85;;
77146;SDS011;66121;52.584;9.694;2023-03-25T08:18:19;10.27;;;3.40;;
77146;SDS011;66121;52.584;9.694;2023-03-25T08:20:44;5.22;;;4.20;;
77146;SDS011;66121;52.584;9.694;2023-03-25T08:23:10;8.27;;;3.90;;
77146;SDS011;66121;52.584;9.694;2023-03-25T08:25:36;7.15;;;4.38;;
77146;SDS011;66121;52.584;9.694;2023-03-25T08:28:03;7.32;;;4.75;;
77146;SDS011;66121;52.584;9.694;2023-03-25T08:30:30;9.32;;;4.03;;
77146;SDS011;66121;52.584;9.694;2023-03-25T08:33:01;10.38;;;4.65;;
77146;SDS011;66121;52.584;9.694;2023-03-25T08:35:27;10.13;;;4.75;;
77146;SDS011;66121;52.584;9.694;2023-03-25T08:37:52;7.70;;;4.10;;
77146;SDS011;66121;52.584;9.694;2023-03-25T08:40:17;8.67;;;4.00;;
77146;SDS011;66121;52.584;9.694;2023-03-25T08:42:43;7.53;;;3.95;;
77146;SDS011;66121;52.584;9.694;2023-03-25T08:45:10;8.43;;;3.80;;
77146;SDS011;66121;52.584;9.694;2023-03-25T08:47:37;7.03;;;3.80;;
77146;SDS011;66121;52.584;9.694;2023-03-25T08:50:03;7.07;;;3.60;;
77146;SDS011;66121;52.584;9.694;2023-03-25T08:52:29;6.57;;;3.92;;
77146;SDS011;66121;52.584;9.694;2023-03-25T08:54:54;9.60;;;3.83;;
77146;SDS011;66121;52.584;9.694;2023-03-25T08:57:19;19.00;;;7.50;;
77146;SDS011;66121;52.584;9.694;2023-03-25T08:59:45;6.43;;;3.60;;
77146;SDS011;66121;52.584;9.694;2023-03-25T09:02:11;8.00;;;3.10;;
77146;SDS011;66121;52.584;9.694;2023-03-25T09:04:36;8.25;;;4.00;;
77146;SDS011;66121;52.584;9.694;2023-03-25T09:07:03;4.80;;;3.15;;
77146;SDS011;66121;52.584;9.694;2023-03-25T09:09:29;5.40;;;3.28;;
77146;SDS011;66121;52.584;9.694;2023-03-25T09:11:54;7.07;;;3.55;;
77146;SDS011;66121;52.584;9.694;2023-03-25T09:14:20;4.33;;;2.70;;
77146;SDS011;66121;52.584;9.694;2023-03-25T09:16:45;4.47;;;2.75;;
77146;SDS011;66121;52.584;9.694;2023-03-25T09:19:11;4.63;;;2.75;;
77146;SDS011;66121;52.584;9.694;2023-03-25T09:21:36;4.88;;;2.85;;
77146;SDS011;66121;52.584;9.694;2023-03-25T09:24:01;7.83;;;3.10;;
77146;SDS011;66121;52.584;9.694;2023-03-25T09:26:27;6.90;;;3.03;;
77146;SDS011;66121;52.584;9.694;2023-03-25T09:28:52;5.80;;;3.20;;
77146;SDS011;66121;52.584;9.694;2023-03-25T09:31:19;5.32;;;3.20;;
77146;SDS011;66121;52.584;9.694;2023-03-25T09:33:45;6.15;;;2.90;;
77146;SDS011;66121;52.584;9.694;2023-03-25T09:36:10;4.80;;;2.73;;
77146;SDS011;66121;52.584;9.694;2023-03-25T09:38:37;6.22;;;3.20;;
77146;SDS011;66121;52.584;9.694;2023-03-25T09:41:03;4.72;;;2.70;;
77146;SDS011;66121;52.584;9.694;2023-03-25T09:46:39;5.63;;;2.85;;
77146;SDS011;66121;52.584;9.694;2023-03-25T09:49:09;4.40;;;3.15;;
77146;SDS011;66121;52.584;9.694;2023-03-25T09:51:40;9.07;;;3.30;;
77146;SDS011;66121;52.584;9.694;2023-03-25T09:54:29;6.43;;;3.10;;
77146;SDS011;66121;52.584;9.694;2023-03-25T09:57:00;5.13;;;3.15;;
77146;SDS011;66121;52.584;9.694;2023-03-25T09:59:40;10.68;;;4.15;;
77146;SDS011;66121;52.584;9.694;2023-03-25T10:11:10;6.22;;;2.05;;
77146;SDS011;66121;52.584;9.694;2023-03-25T10:14:17;5.68;;;2.22;;
77146;SDS011;66121;52.584;9.694;2023-03-25T10:16:53;3.88;;;1.70;;
77146;SDS011;66121;52.584;9.694;2023-03-25T10:22:24;3.85;;;1.80;;
77146;SDS011;66121;52.584;9.694;2023-03-25T10:25:03;3.97;;;1.50;;
77146;SDS011;66121;52.584;9.694;2023-03-25T10:27:37;1.77;;;1.27;;
77146;SDS011;66121;52.584;9.694;2023-03-25T10:32:40;3.83;;;1.43;;
77146;SDS011;66121;52.584;9.694;2023-03-25T10:35:11;4.28;;;1.75;;
77146;SDS011;66121;52.584;9.694;2023-03-25T10:37:41;6.15;;;1.98;;
77146;SDS011;66121;52.584;9.694;2023-03-25T10:40:14;5.30;;;2.17;;
77146;SDS011;66121;52.584;9.694;2023-03-25T10:42:49;3.45;;;2.60;;
77146;SDS011;66121;52.584;9.694;2023-03-25T10:45:23;4.07;;;2.83;;
77146;SDS011;66121;52.584;9.694;2023-03-25T10:47:50;7.30;;;3.50;;
77146;SDS011;66121;52.584;9.694;2023-03-25T10:50:21;11.90;;;4.22;;
77146;SDS011;66121;52.584;9.694;2023-03-25T10:52:47;6.68;;;3.25;;
77146;SDS011;66121;52.584;9.694;2023-03-25T10:55:33;11.60;;;4.55;;
77146;SDS011;66121;52.584;9.694;2023-03-25T10:58:01;5.38;;;3.10;;
77146;SDS011;66121;52.584;9.694;2023-03-25T11:00:26;7.82;;;3.75;;
77146;SDS011;66121;52.584;9.694;2023-03-25T11:02:54;7.20;;;3.08;;
77146;SDS011;66121;52.584;9.694;2023-03-25T11:05:21;7.22;;;3.15;;
77146;SDS011;66121;52.584;9.694;2023-03-25T11:07:52;5.55;;;3.20;;
77146;SDS011;66121;52.584;9.694;2023-03-25T11:10:29;6.28;;;4.18;;
77146;SDS011;66121;52.584;9.694;2023-03-25T11:12:59;10.27;;;3.35;;
77146;SDS011;66121;52.584;9.694;2023-03-25T11:15:37;6.75;;;3.15;;
77146;SDS011;66121;52.584;9.694;2023-03-25T11:18:07;6.53;;;3.80;;
77146;SDS011;66121;52.584;9.694;2023-03-25T11:20:50;8.55;;;3.05;;
77146;SDS011;66121;52.584;9.694;2023-03-25T11:26:17;8.57;;;3.22;;
77146;SDS011;66121;52.584;9.694;2023-03-25T11:28:47;7.68;;;3.35;;
77146;SDS011;66121;52.584;9.694;2023-03-25T11:31:15;7.75;;;3.03;;
77146;SDS011;66121;52.584;9.694;2023-03-25T11:36:50;6.25;;;3.10;;
77146;SDS011;66121;52.584;9.694;2023-03-25T11:39:39;4.47;;;2.72;;
77146;SDS011;66121;52.584;9.694;2023-03-25T11:44:40;5.70;;;2.80;;
77146;SDS011;66121;52.584;9.694;2023-03-25T11:47:08;5.65;;;3.80;;
77146;SDS011;66121;52.584;9.694;2023-03-25T11:49:38;7.10;;;3.63;;
77146;SDS011;66121;52.584;9.694;2023-03-25T11:52:12;6.32;;;2.97;;
77146;SDS011;66121;52.584;9.694;2023-03-25T11:54:42;8.85;;;3.60;;
77146;SDS011;66121;52.584;9.694;2023-03-25T11:57:10;7.75;;;3.55;;
77146;SDS011;66121;52.584;9.694;2023-03-25T11:59:41;11.38;;;3.50;;
77146;SDS011;66121;52.584;9.694;2023-03-25T12:02:21;5.22;;;2.85;;
77146;SDS011;66121;52.584;9.694;2023-03-25T12:04:57;6.20;;;3.10;;
77146;SDS011;66121;52.584;9.694;2023-03-25T12:07:27;7.85;;;3.00;;
77146;SDS011;66121;52.584;9.694;2023-03-25T12:09:54;8.07;;;3.20;;
77146;SDS011;66121;52.584;9.694;2023-03-25T12:12:25;9.13;;;2.75;;
77146;SDS011;66121;52.584;9.694;2023-03-25T12:36:44;7.18;;;2.50;;
77146;SDS011;66121;52.584;9.694;2023-03-25T12:42:05;5.63;;;2.60;;
77146;SDS011;66121;52.584;9.694;2023-03-25T12:47:42;6.38;;;2.33;;
77146;SDS011;66121;52.584;9.694;2023-03-25T12:50:19;8.20;;;2.65;;
77146;SDS011;66121;52.584;9.694;2023-03-25T12:58:54;5.80;;;2.05;;
77146;SDS011;66121;52.584;9.694;2023-03-25T13:06:45;5.20;;;1.98;;
77146;SDS011;66121;52.584;9.694;2023-03-25T13:09:59;6.50;;;2.22;;
77146;SDS011;66121;52.584;9.694;2023-03-25T13:17:50;5.18;;;2.10;;
77146;SDS011;66121;52.584;9.694;2023-03-25T13:20:21;5.28;;;2.25;;
77146;SDS011;66121;52.584;9.694;2023-03-25T13:22:50;5.40;;;2.25;;
77146;SDS011;66121;52.584;9.694;2023-03-25T13:25:30;4.88;;;2.35;;
77146;SDS011;66121;52.584;9.694;2023-03-25T13:28:12;5.32;;;2.00;;
77146;SDS011;66121;52.584;9.694;2023-03-25T13:30:43;4.47;;;2.33;;
77146;SDS011;66121;52.584;9.694;2023-03-25T13:35:56;7.60;;;2.53;;
77146;SDS011;66121;52.584;9.694;2023-03-25T13:43:48;3.90;;;1.80;;
77146;SDS011;66121;52.584;9.694;2023-03-25T13:46:23;4.90;;;2.03;;
77146;SDS011;66121;52.584;9.694;2023-03-25T13:49:06;3.45;;;1.80;;
77146;SDS011;66121;52.584;9.694;2023-03-25T13:51:39;4.18;;;1.65;;
77146;SDS011;66121;52.584;9.694;2023-03-25T13:54:07;3.40;;;1.67;;
77146;SDS011;66121;52.584;9.694;2023-03-25T14:13:14;5.82;;;1.45;;
77146;SDS011;66121;52.584;9.694;2023-03-25T14:15:49;5.20;;;1.58;;
77146;SDS011;66121;52.584;9.694;2023-03-25T14:18:25;4.00;;;1.30;;
77146;SDS011;66121;52.584;9.694;2023-03-25T14:20:55;2.20;;;1.40;;
77146;SDS011;66121;52.584;9.694;2023-03-25T14:23:23;7.18;;;1.75;;
77146;SDS011;66121;52.584;9.694;2023-03-25T14:25:53;4.72;;;1.50;;
77146;SDS011;66121;52.584;9.694;2023-03-25T14:36:28;6.20;;;1.40;;
77146;SDS011;66121;52.584;9.694;2023-03-25T14:39:07;5.32;;;1.83;;
77146;SDS011;66121;52.584;9.694;2023-03-25T14:44:19;9.40;;;3.80;;
77146;SDS011;66121;52.584;9.694;2023-03-25T14:46:45;6.85;;;2.70;;
77146;SDS011;66121;52.584;9.694;2023-03-25T14:49:22;3.55;;;1.60;;
77146;SDS011;66121;52.584;9.694;2023-03-25T14:51:57;6.00;;;2.72;;
77146;SDS011;66121;52.584;9.694;2023-03-25T14:54:29;3.70;;;1.60;;
77146;SDS011;66121;52.584;9.694;2023-03-25T14:57:05;5.38;;;1.85;;
77146;SDS011;66121;52.584;9.694;2023-03-25T14:59:39;4.88;;;1.88;;
77146;SDS011;66121;52.584;9.694;2023-03-25T15:02:14;7.15;;;1.90;;
77146;SDS011;66121;52.584;9.694;2023-03-25T15:04:44;8.52;;;3.20;;
77146;SDS011;66121;52.584;9.694;2023-03-25T15:07:36;4.90;;;1.95;;
77146;SDS011;66121;52.584;9.694;2023-03-25T15:12:31;6.68;;;1.52;;
77146;SDS011;66121;52.584;9.694;2023-03-25T15:15:22;8.27;;;3.05;;
77146;SDS011;66121;52.584;9.694;2023-03-25T15:23:33;5.43;;;2.72;;
77146;SDS011;66121;52.584;9.694;2023-03-25T15:26:06;3.92;;;1.65;;
77146;SDS011;66121;52.584;9.694;2023-03-25T15:28:46;6.88;;;2.67;;
77146;SDS011;66121;52.584;9.694;2023-03-25T15:31:26;5.70;;;2.38;;
77146;SDS011;66121;52.584;9.694;2023-03-25T15:37:23;7.22;;;3.55;;
77146;SDS011;66121;52.584;9.694;2023-03-25T15:42:58;4.35;;;2.03;;
77146;SDS011;66121;52.584;9.694;2023-03-25T15:51:25;6.93;;;2.00;;
77146;SDS011;66121;52.584;9.694;2023-03-25T16:02:24;4.20;;;2.03;;
77146;SDS011;66121;52.584;9.694;2023-03-25T16:04:54;3.95;;;1.80;;
77146;SDS011;66121;52.584;9.694;2023-03-25T16:07:21;6.20;;;2.83;;
77146;SDS011;66121;52.584;9.694;2023-03-25T16:09:52;7.03;;;3.20;;
77146;SDS011;66121;52.584;9.694;2023-03-25T16:12:21;6.40;;;2.63;;
77146;SDS011;66121;52.584;9.694;2023-03-25T16:14:49;3.58;;;1.90;;
77146;SDS011;66121;52.584;9.694;2023-03-25T16:17:16;4.38;;;1.83;;
77146;SDS011;66121;52.584;9.694;2023-03-25T16:19:44;4.00;;;2.13;;
77146;SDS011;66121;52.584;9.694;2023-03-25T16:24:41;7.53;;;2.40;;
77146;SDS011;66121;52.584;9.694;2023-03-25T16:27:09;5.97;;;2.60;;
77146;SDS011;66121;52.584;9.694;2023-03-25T16:29:36;6.40;;;2.67;;
77146;SDS011;66121;52.584;9.694;2023-03-25T16:32:04;8.13;;;3.65;;
77146;SDS011;66121;52.584;9.694;2023-03-25T16:34:33;8.13;;;2.92;;
77146;SDS011;66121;52.584;9.694;2023-03-25T16:37:02;5.50;;;2.50;;
77146;SDS011;66121;52.584;9.694;2023-03-25T16:39:30;7.95;;;2.00;;
77146;SDS011;66121;52.584;9.694;2023-03-25T16:42:01;4.72;;;3.35;;
77146;SDS011;66121;52.584;9.694;2023-03-25T16:44:35;4.80;;;2.30;;
77146;SDS011;66121;52.584;9.694;2023-03-25T16:47:01;5.10;;;1.60;;
77146;SDS011;66121;52.584;9.694;2023-03-25T16:49:32;3.05;;;1.67;;
77146;SDS011;66121;52.584;9.694;2023-03-25T16:52:10;4.05;;;1.80;;
77146;SDS011;66121;52.584;9.694;2023-03-25T16:57:34;2.42;;;1.90;;
77146;SDS011;66121;52.584;9.694;2023-03-25T17:02:42;2.88;;;1.85;;
77146;SDS011;66121;52.584;9.694;2023-03-25T17:07:48;5.43;;;2.38;;
77146;SDS011;66121;52.584;9.694;2023-03-25T17:10:21;4.47;;;3.00;;
77146;SDS011;66121;52.584;9.694;2023-03-25T17:12:51;5.07;;;2.80;;
77146;SDS011;66121;52.584;9.694;2023-03-25T17:15:20;5.70;;;2.88;;
77146;SDS011;66121;52.584;9.694;2023-03-25T17:17:48;3.72;;;1.90;;
77146;SDS011;66121;52.584;9.694;2023-03-25T17:20:19;5.75;;;1.92;;
77146;SDS011;66121;52.584;9.694;2023-03-25T17:25:50;5.70;;;2.22;;
77146;SDS011;66121;52.584;9.694;2023-03-25T17:28:33;6.30;;;2.17;;
77146;SDS011;66121;52.584;9.694;2023-03-25T17:33:49;7.72;;;2.28;;
77146;SDS011;66121;52.584;9.694;2023-03-25T17:36:22;4.72;;;2.03;;
77146;SDS011;66121;52.584;9.694;2023-03-25T17:38:47;7.20;;;2.22;;
77146;SDS011;66121;52.584;9.694;2023-03-25T17:41:17;5.05;;;2.03;;
77146;SDS011;66121;52.584;9.694;2023-03-25T17:43:45;5.72;;;2.10;;
77146;SDS011;66121;52.584;9.694;2023-03-25T17:46:23;5.63;;;2.10;;
77146;SDS011;66121;52.584;9.694;2023-03-25T17:48:50;6.22;;;2.28;;
77146;SDS011;66121;52.584;9.694;2023-03-25T17:51:19;6.97;;;2.05;;
77146;SDS011;66121;52.584;9.694;2023-03-25T17:53:45;2.47;;;1.40;;
77146;SDS011;66121;52.584;9.694;2023-03-25T17:56:12;1.20;;;1.00;;
77146;SDS011;66121;52.584;9.694;2023-03-25T17:58:40;3.13;;;1.48;;
77146;SDS011;66121;52.584;9.694;2023-03-25T18:01:08;2.88;;;1.65;;